createdAt,value
2023-03-18T00:00:24.258Z,100202.84
2023-03-18T00:02:50.573Z,100195.63
2023-03-18T00:05:17.295Z,100193.19
2023-03-18T00:07:43.622Z,100193.59
2023-03-18T00:10:10.653Z,100196.84
2023-03-18T00:12:39.005Z,100199.63
2023-03-18T00:15:09.512Z,100192.38
2023-03-18T00:17:37.626Z,100190.78
2023-03-18T00:20:05.875Z,100198.41
2023-03-18T00:22:36.289Z,100188.78
2023-03-18T00:25:03.664Z,100189.97
2023-03-18T00:27:30.205Z,100191.19
2023-03-18T00:29:57.752Z,100181.56
2023-03-18T00:32:25.889Z,100183.94
2023-03-18T00:34:53.056Z,100187.97
2023-03-18T00:37:30.224Z,100187.16
2023-03-18T00:40:05.036Z,100187.56
2023-03-18T00:42:37.228Z,100193.19
2023-03-18T00:45:04.406Z,100194.38
2023-03-18T00:47:30.741Z,100194.38
2023-03-18T00:49:57.113Z,100192.38
2023-03-18T00:52:23.627Z,100195.19
2023-03-18T00:54:50.371Z,100198.00
2023-03-18T00:57:17.414Z,100203.59
2023-03-18T00:59:44.228Z,100202.81
2023-03-18T01:02:10.764Z,100205.63
2023-03-18T01:04:37.293Z,100206.41
2023-03-18T01:07:03.589Z,100196.41
2023-03-18T01:09:29.830Z,100202.03
2023-03-18T01:11:56.102Z,100202.03
2023-03-18T01:14:22.336Z,100194.81
2023-03-18T01:16:49.240Z,100199.19
2023-03-18T01:19:15.937Z,100203.22
2023-03-18T01:21:42.430Z,100200.81
2023-03-18T01:24:10.200Z,100200.00
2023-03-18T01:26:36.812Z,100187.56
2023-03-18T01:29:03.778Z,100181.94
2023-03-18T01:31:30.155Z,100187.56
2023-03-18T01:33:56.692Z,100189.16
2023-03-18T01:36:23.047Z,100195.59
2023-03-18T01:38:49.288Z,100183.53
2023-03-18T01:41:17.117Z,100196.00
2023-03-18T01:43:44.198Z,100207.25
2023-03-18T01:46:30.326Z,100196.38
2023-03-18T01:48:56.950Z,100201.19
2023-03-18T01:51:24.895Z,100211.25
2023-03-18T01:53:52.214Z,100211.66
2023-03-18T01:56:18.695Z,100214.03
2023-03-18T01:58:46.534Z,100206.00
2023-03-18T02:01:17.979Z,100202.78
2023-03-18T02:06:12.285Z,100207.59
2023-03-18T02:08:39.710Z,100212.41
2023-03-18T02:11:06.824Z,100210.78
2023-03-18T02:13:35.790Z,100199.97
2023-03-18T02:16:05.074Z,100203.97
2023-03-18T02:18:35.142Z,100199.97
2023-03-18T02:21:20.858Z,100201.16
2023-03-18T02:23:49.958Z,100194.75
2023-03-18T02:26:37.241Z,100209.97
2023-03-18T02:29:05.803Z,100212.00
2023-03-18T02:31:33.289Z,100199.16
2023-03-18T02:34:00.106Z,100205.56
2023-03-18T02:36:30.180Z,100207.56
2023-03-18T02:38:57.351Z,100212.00
2023-03-18T02:41:25.354Z,100208.81
2023-03-18T02:43:52.257Z,100210.41
2023-03-18T02:46:40.842Z,100205.59
2023-03-18T02:49:07.908Z,100207.59
2023-03-18T02:51:35.484Z,100213.59
2023-03-18T02:54:04.520Z,100201.56
2023-03-18T02:56:30.859Z,100202.00
2023-03-18T02:58:58.010Z,100194.38
2023-03-18T03:01:24.692Z,100191.56
2023-03-18T03:03:51.627Z,100186.75
2023-03-18T03:06:18.022Z,100189.53
2023-03-18T03:08:44.734Z,100199.19
2023-03-18T03:11:11.496Z,100200.78
2023-03-18T03:13:39.342Z,100198.78
2023-03-18T03:16:05.867Z,100197.97
2023-03-18T03:18:32.125Z,100196.38
2023-03-18T03:20:58.766Z,100202.78
2023-03-18T03:23:25.273Z,100195.94
2023-03-18T03:25:51.514Z,100205.59
2023-03-18T03:28:17.773Z,100205.59
2023-03-18T03:30:44.482Z,100203.19
2023-03-18T03:33:10.961Z,100204.75
2023-03-18T03:35:38.640Z,100210.38
2023-03-18T03:38:05.070Z,100216.38
2023-03-18T03:40:31.910Z,100221.97
2023-03-18T03:42:58.906Z,100222.78
2023-03-18T03:45:25.365Z,100221.56
2023-03-18T03:47:52.395Z,100224.38
2023-03-18T03:50:19.045Z,100222.78
2023-03-18T03:52:45.576Z,100228.78
2023-03-18T03:55:14.315Z,100224.78
2023-03-18T03:57:40.633Z,100225.16
2023-03-18T04:00:10.157Z,100234.41
2023-03-18T04:02:37.449Z,100234.00
2023-03-18T04:05:04.130Z,100239.97
2023-03-18T04:07:30.635Z,100240.38
2023-03-18T04:09:57.344Z,100244.75
2023-03-18T04:12:23.672Z,100245.16
2023-03-18T04:14:51.826Z,100247.56
2023-03-18T04:17:18.221Z,100251.97
2023-03-18T04:19:44.461Z,100239.09
2023-03-18T04:22:10.788Z,100247.91
2023-03-18T04:24:37.394Z,100245.50
2023-03-18T04:27:03.899Z,100249.91
2023-03-18T04:29:30.805Z,100250.28
2023-03-18T04:31:57.056Z,100248.28
2023-03-18T04:34:24.079Z,100260.28
2023-03-18T04:36:50.383Z,100265.06
2023-03-18T04:39:16.740Z,100257.81
2023-03-18T04:41:43.094Z,100260.22
2023-03-18T04:44:09.377Z,100261.41
2023-03-18T04:46:36.212Z,100269.38
2023-03-18T04:49:02.848Z,100278.59
2023-03-18T04:51:29.339Z,100275.75
2023-03-18T04:53:55.615Z,100275.72
2023-03-18T04:56:22.143Z,100271.72
2023-03-18T04:58:48.527Z,100281.34
2023-03-18T05:01:15.033Z,100277.31
2023-03-18T05:03:41.770Z,100277.69
2023-03-18T05:06:09.524Z,100278.06
2023-03-18T05:08:35.856Z,100286.88
2023-03-18T05:11:02.176Z,100288.09
2023-03-18T05:13:28.674Z,100274.81
2023-03-18T05:15:55.134Z,100282.03
2023-03-18T05:18:21.398Z,100292.81
2023-03-18T05:20:48.154Z,100289.59
2023-03-18T05:23:14.586Z,100289.19
2023-03-18T05:25:41.065Z,100289.56
2023-03-18T05:28:10.143Z,100297.59
2023-03-18T05:30:39.788Z,100298.38
2023-03-18T05:33:06.160Z,100293.16
2023-03-18T05:35:32.645Z,100289.94
2023-03-18T05:37:59.392Z,100295.53
2023-03-18T05:40:25.682Z,100294.75
2023-03-18T05:42:56.238Z,100299.16
2023-03-18T05:45:23.076Z,100296.34
2023-03-18T05:47:49.361Z,100289.94
2023-03-18T05:50:18.823Z,100289.94
2023-03-18T05:52:45.221Z,100294.34
2023-03-18T05:55:13.707Z,100296.78
2023-03-18T05:57:40.546Z,100297.59
2023-03-18T06:00:07.223Z,100301.19
2023-03-18T06:02:33.519Z,100304.41
2023-03-18T06:04:59.954Z,100313.63
2023-03-18T06:07:27.442Z,100311.59
2023-03-18T06:09:53.682Z,100312.44
2023-03-18T06:12:23.008Z,100314.06
2023-03-18T06:14:49.338Z,100317.66
2023-03-18T06:17:16.429Z,100319.25
2023-03-18T06:19:42.716Z,100320.50
2023-03-18T06:22:09.904Z,100321.72
2023-03-18T06:24:36.282Z,100326.13
2023-03-18T06:27:02.599Z,100332.53
2023-03-18T06:29:29.755Z,100334.56
2023-03-18T06:31:56.022Z,100332.56
2023-03-18T06:34:22.507Z,100331.38
2023-03-18T06:36:49.814Z,100334.59
2023-03-18T06:39:16.112Z,100329.81
2023-03-18T06:41:42.394Z,100337.44
2023-03-18T06:44:08.648Z,100346.28
2023-03-18T06:46:35.845Z,100343.88
2023-03-18T06:49:02.481Z,100344.31
2023-03-18T06:51:28.760Z,100345.91
2023-03-18T06:53:55.252Z,100353.56
2023-03-18T06:56:22.039Z,100353.97
2023-03-18T06:58:48.376Z,100346.78
2023-03-18T07:01:15.351Z,100355.22
2023-03-18T07:03:41.902Z,100356.44
2023-03-18T07:06:10.399Z,100351.66
2023-03-18T07:08:37.058Z,100358.13
2023-03-18T07:11:03.891Z,100371.00
2023-03-18T07:13:30.215Z,100367.38
2023-03-18T07:15:57.221Z,100369.41
2023-03-18T07:18:23.794Z,100374.22
2023-03-18T07:20:50.275Z,100380.69
2023-03-18T07:23:16.943Z,100383.53
2023-03-18T07:25:44.769Z,100383.94
2023-03-18T07:28:11.133Z,100379.56
2023-03-18T07:30:38.417Z,100385.19
2023-03-18T07:33:05.067Z,100379.22
2023-03-18T07:35:31.962Z,100383.63
2023-03-18T07:37:58.753Z,100389.22
2023-03-18T07:40:25.262Z,100390.81
2023-03-18T07:42:51.663Z,100392.44
2023-03-18T07:45:18.125Z,100388.44
2023-03-18T07:47:47.039Z,100400.09
2023-03-18T07:50:13.825Z,100392.84
2023-03-18T07:52:40.506Z,100398.91
2023-03-18T07:55:09.021Z,100400.09
2023-03-18T07:57:35.551Z,100400.91
2023-03-18T08:00:02.467Z,100406.16
2023-03-18T08:02:28.761Z,100406.16
2023-03-18T08:04:55.448Z,100406.19
2023-03-18T08:07:23.162Z,100411.44
2023-03-18T08:09:50.569Z,100414.25
2023-03-18T08:12:19.062Z,100414.66
2023-03-18T08:14:45.538Z,100417.47
2023-03-18T08:17:12.149Z,100411.50
2023-03-18T08:19:38.641Z,100420.38
2023-03-18T08:22:04.934Z,100419.19
2023-03-18T08:24:31.410Z,100423.25
2023-03-18T08:26:57.777Z,100422.09
2023-03-18T08:29:24.016Z,100425.31
2023-03-18T08:31:51.163Z,100426.56
2023-03-18T08:34:17.457Z,100418.56
2023-03-18T08:36:43.705Z,100435.53
2023-03-18T08:39:11.120Z,100430.31
2023-03-18T08:41:37.567Z,100433.56
2023-03-18T08:44:06.685Z,100438.00
2023-03-18T08:46:32.988Z,100453.72
2023-03-18T08:48:59.894Z,100454.50
2023-03-18T08:51:26.786Z,100456.56
2023-03-18T08:53:53.141Z,100454.16
2023-03-18T08:56:19.388Z,100453.75
2023-03-18T08:58:45.936Z,100452.97
2023-03-18T09:01:12.566Z,100456.97
2023-03-18T09:03:39.321Z,100460.19
2023-03-18T09:06:05.815Z,100458.59
2023-03-18T09:08:32.732Z,100461.78
2023-03-18T09:10:59.899Z,100466.25
2023-03-18T09:13:26.607Z,100457.38
2023-03-18T09:15:53.106Z,100457.78
2023-03-18T09:18:19.486Z,100464.25
2023-03-18T09:20:46.826Z,100463.84
2023-03-18T09:23:13.909Z,100464.25
2023-03-18T09:25:43.040Z,100464.66
2023-03-18T09:28:09.877Z,100473.50
2023-03-18T09:30:38.032Z,100468.66
2023-03-18T09:33:06.903Z,100460.22
2023-03-18T09:35:33.838Z,100455.81
2023-03-18T09:38:00.511Z,100472.69
2023-03-18T11:02:02.520Z,100498.53
2023-03-18T11:04:31.970Z,100489.94
2023-03-18T11:07:03.222Z,100496.00
2023-03-18T11:09:36.507Z,100488.53
2023-03-18T11:12:25.748Z,100482.09
2023-03-18T11:14:53.722Z,100479.97
2023-03-18T11:17:22.445Z,100484.16
2023-03-18T11:20:00.706Z,100486.69
2023-03-18T11:22:28.278Z,100481.91
2023-03-18T11:25:16.974Z,100483.94
2023-03-18T11:27:48.937Z,100483.19
2023-03-18T11:30:33.089Z,100477.53
2023-03-18T11:33:13.108Z,100472.28
2023-03-18T11:35:52.059Z,100482.31
2023-03-18T11:38:28.675Z,100480.69
2023-03-18T11:41:08.585Z,100482.72
2023-03-18T11:43:37.950Z,100480.25
2023-03-18T11:46:07.201Z,100479.41
2023-03-18T11:48:39.934Z,100477.78
2023-03-18T11:51:31.836Z,100473.34
2023-03-18T11:53:58.151Z,100462.03
2023-03-18T11:56:41.468Z,100457.22
2023-03-18T11:59:18.135Z,100467.66
2023-03-18T12:02:07.734Z,100456.72
2023-03-18T12:05:21.394Z,100456.72
2023-03-18T12:08:03.275Z,100447.03
2023-03-18T12:10:59.213Z,100444.59
2023-03-18T12:14:07.975Z,100451.44
2023-03-18T12:17:07.945Z,100455.84
2023-03-18T12:19:53.027Z,100448.13
2023-03-18T12:22:28.482Z,100448.47
2023-03-18T12:25:07.339Z,100451.31
2023-03-18T12:28:01.075Z,100448.50
2023-03-18T12:30:40.861Z,100443.63
2023-03-18T12:33:28.268Z,100451.66
2023-03-18T12:36:00.848Z,100452.44
2023-03-18T12:38:45.179Z,100446.72
2023-03-18T12:41:37.216Z,100454.00
2023-03-18T12:44:23.334Z,100452.78
2023-03-18T12:46:58.726Z,100451.91
2023-03-18T12:49:43.304Z,100451.50
2023-03-18T12:52:21.950Z,100444.19
2023-03-18T12:55:11.646Z,100432.47
2023-03-18T12:57:50.352Z,100431.22
2023-03-18T13:00:39.978Z,100438.00
2023-03-18T13:03:31.557Z,100434.72
2023-03-18T13:06:05.475Z,100437.91
2023-03-18T13:08:44.018Z,100426.13
2023-03-18T13:11:44.800Z,100421.28
2023-03-18T13:14:17.664Z,100426.47
2023-03-18T13:16:44.392Z,100423.22
2023-03-18T13:19:12.209Z,100422.84
2023-03-18T13:21:48.489Z,100428.06
2023-03-18T13:24:45.370Z,100423.59
2023-03-18T13:27:26.700Z,100420.69
2023-03-18T13:30:06.206Z,100414.59
2023-03-18T13:32:38.809Z,100412.53
2023-03-18T13:35:14.619Z,100406.09
2023-03-18T13:38:06.462Z,100400.00
2023-03-18T13:40:54.574Z,100405.22
2023-03-18T13:43:24.150Z,100395.44
2023-03-18T13:45:53.656Z,100405.13
2023-03-18T13:48:33.647Z,100405.91
2023-03-18T13:51:18.524Z,100409.06
2023-03-18T13:53:47.509Z,100410.25
2023-03-18T13:56:26.340Z,100399.72
2023-03-18T13:58:54.318Z,100398.03
2023-03-18T14:01:24.350Z,100393.53
2023-03-18T14:03:51.119Z,100384.63
2023-03-18T14:06:36.582Z,100388.69
2023-03-18T14:09:22.893Z,100392.69
2023-03-18T14:11:52.688Z,100380.09
2023-03-18T14:14:53.682Z,100382.13
2023-03-18T14:17:33.370Z,100375.63
2023-03-18T14:20:38.747Z,100375.19
2023-03-18T14:23:39.001Z,100369.91
2023-03-18T14:26:08.588Z,100364.59
2023-03-18T14:28:49.198Z,100364.19
2023-03-18T14:31:39.049Z,100368.63
2023-03-18T14:34:18.053Z,100363.78
2023-03-18T14:36:54.207Z,100367.00
2023-03-18T14:39:38.090Z,100364.59
2023-03-18T14:42:24.952Z,100360.13
2023-03-18T14:44:54.867Z,100365.78
2023-03-18T14:47:38.163Z,100354.09
2023-03-18T14:50:23.748Z,100347.22
2023-03-18T14:53:11.714Z,100344.78
2023-03-18T14:55:39.183Z,100345.97
2023-03-18T14:58:05.855Z,100346.41
2023-03-18T15:00:36.750Z,100345.19
2023-03-18T15:03:11.890Z,100346.84
2023-03-18T15:05:41.724Z,100350.88
2023-03-18T15:08:22.629Z,100351.34
2023-03-18T15:10:51.594Z,100349.75
2023-03-18T15:13:20.935Z,100349.81
2023-03-18T15:15:47.836Z,100342.53
2023-03-18T15:18:21.335Z,100339.75
2023-03-18T15:21:10.307Z,100340.59
2023-03-18T15:23:40.602Z,100331.28
2023-03-18T15:26:13.405Z,100332.50
2023-03-18T15:28:39.772Z,100336.56
2023-03-18T15:31:06.306Z,100336.59
2023-03-18T15:33:38.320Z,100335.06
2023-03-18T15:36:16.418Z,100337.94
2023-03-18T15:38:51.201Z,100335.97
2023-03-18T15:41:21.530Z,100340.38
2023-03-18T15:43:53.847Z,100348.53
2023-03-18T15:46:31.061Z,100349.38
2023-03-18T15:49:02.441Z,100355.03
2023-03-18T15:51:38.537Z,100367.22
2023-03-18T15:54:15.045Z,100372.09
2023-03-18T15:56:49.569Z,100381.84
2023-03-18T15:59:29.617Z,100385.53
2023-03-18T16:01:57.808Z,100395.66
2023-03-18T16:04:25.408Z,100396.13
2023-03-18T16:06:55.037Z,100403.84
2023-03-18T16:09:24.032Z,100400.25
2023-03-18T16:12:19.788Z,100410.06
2023-03-18T16:14:49.125Z,100416.97
2023-03-18T16:17:19.654Z,100418.31
2023-03-18T16:19:54.406Z,100411.53
2023-03-18T16:22:21.666Z,100413.63
2023-03-18T16:24:48.248Z,100423.75
2023-03-18T16:27:38.258Z,100419.44
2023-03-18T16:30:07.112Z,100413.38
2023-03-18T16:32:33.875Z,100407.75
2023-03-18T16:35:00.763Z,100408.97
2023-03-18T16:37:27.954Z,100413.03
2023-03-18T16:39:56.039Z,100405.78
2023-03-18T16:42:24.284Z,100409.84
2023-03-18T16:44:51.650Z,100394.94
2023-03-18T16:47:27.610Z,100404.63
2023-03-18T16:49:55.371Z,100407.47
2023-03-18T16:52:21.898Z,100401.47
2023-03-18T16:54:48.639Z,100398.69
2023-03-18T16:57:21.689Z,100403.53
2023-03-18T16:59:50.959Z,100401.09
2023-03-18T17:02:27.404Z,100405.56
2023-03-18T17:04:54.014Z,100403.56
2023-03-18T17:07:20.614Z,100396.69
2023-03-18T17:09:47.175Z,100402.31
2023-03-18T17:12:15.953Z,100410.00
2023-03-18T17:14:51.764Z,100407.16
2023-03-18T17:17:43.732Z,100407.97
2023-03-18T17:20:19.909Z,100406.00
2023-03-18T17:22:47.289Z,100418.88
2023-03-18T17:25:14.412Z,100409.22
2023-03-18T17:27:55.275Z,100412.88
2023-03-18T17:30:33.618Z,100420.13
2023-03-18T17:33:00.561Z,100418.53
2023-03-18T17:35:27.308Z,100423.34
2023-03-18T17:37:54.469Z,100422.56
2023-03-18T17:40:22.557Z,100416.56
2023-03-18T17:42:52.076Z,100430.28
2023-03-18T17:45:33.531Z,100434.72
2023-03-18T17:48:18.162Z,100438.78
2023-03-18T17:50:44.861Z,100431.53
2023-03-18T17:53:24.147Z,100434.75
2023-03-18T17:55:50.830Z,100436.38
2023-03-18T17:58:18.956Z,100438.81
2023-03-18T18:00:46.906Z,100438.44
2023-03-18T18:03:26.902Z,100441.66
2023-03-18T18:05:55.243Z,100443.69
2023-03-18T18:08:24.641Z,100445.69
2023-03-18T18:10:54.162Z,100446.53
2023-03-18T18:13:22.778Z,100440.88
2023-03-18T18:15:50.581Z,100450.59
2023-03-18T18:18:24.844Z,100445.75
2023-03-18T18:20:57.255Z,100448.97
2023-03-18T18:23:38.304Z,100453.00
2023-03-18T18:26:08.130Z,100455.38
2023-03-18T18:28:37.116Z,100457.41
2023-03-18T18:31:05.743Z,100451.34
2023-03-18T18:33:33.577Z,100453.38
2023-03-18T18:36:00.802Z,100463.41
2023-03-18T18:38:28.311Z,100460.19
2023-03-18T18:40:56.488Z,100457.75
2023-03-18T18:43:24.999Z,100454.13
2023-03-18T18:45:52.638Z,100458.16
2023-03-18T18:48:38.321Z,100461.78
2023-03-18T18:51:05.180Z,100460.56
2023-03-18T18:53:36.518Z,100460.59
2023-03-18T18:56:23.586Z,100466.63
2023-03-18T18:58:52.069Z,100460.56
2023-03-18T19:01:20.066Z,100463.38
2023-03-18T19:03:47.181Z,100465.00
2023-03-18T19:06:40.673Z,100466.97
2023-03-18T19:09:18.110Z,100455.72
2023-03-18T19:11:46.188Z,100468.97
2023-03-18T19:14:18.344Z,100458.53
2023-03-18T19:16:45.726Z,100460.91
2023-03-18T19:19:21.112Z,100465.72
2023-03-18T19:21:49.040Z,100468.13
2023-03-18T19:24:37.837Z,100469.31
2023-03-18T19:27:10.062Z,100476.94
2023-03-18T19:29:37.315Z,100469.28
2023-03-18T19:32:04.379Z,100470.88
2023-03-18T19:34:33.754Z,100466.78
2023-03-18T19:37:03.012Z,100470.38
2023-03-18T19:39:29.770Z,100468.72
2023-03-18T19:41:56.342Z,100466.69
2023-03-18T19:44:25.082Z,100474.72
2023-03-18T19:46:53.987Z,100469.47
2023-03-18T19:49:30.453Z,100464.19
2023-03-18T19:51:57.383Z,100467.78
2023-03-18T19:54:34.018Z,100479.78
2023-03-18T19:57:06.767Z,100474.53
2023-03-18T19:59:39.323Z,100477.31
2023-03-18T20:02:28.951Z,100480.47
2023-03-18T20:04:57.911Z,100482.88
2023-03-18T20:07:27.242Z,100483.22
2023-03-18T20:09:56.834Z,100487.22
2023-03-18T20:12:36.580Z,100486.72
2023-03-18T20:15:04.601Z,100491.91
2023-03-18T20:17:47.745Z,100493.03
2023-03-18T20:20:17.348Z,100493.81
2023-03-18T20:22:48.313Z,100494.16
2023-03-18T20:25:32.705Z,100498.13
2023-03-18T20:28:00.160Z,100494.91
2023-03-18T20:30:30.033Z,100493.25
2023-03-18T20:32:58.371Z,100503.28
2023-03-18T20:35:28.013Z,100500.44
2023-03-18T20:37:56.064Z,100500.00
2023-03-18T20:40:25.592Z,100496.78
2023-03-18T20:42:53.130Z,100501.97
2023-03-18T20:45:22.214Z,100500.75
2023-03-18T20:47:49.215Z,100505.53
2023-03-18T20:50:21.402Z,100497.53
2023-03-18T20:52:49.127Z,100504.31
2023-03-18T20:55:27.813Z,100508.69
2023-03-18T20:57:54.362Z,100511.91
2023-03-18T21:00:24.178Z,100513.50
2023-03-18T21:02:54.504Z,100515.88
2023-03-18T21:05:21.729Z,100513.06
2023-03-18T21:07:48.706Z,100519.06
2023-03-18T21:10:23.889Z,100524.28
2023-03-18T21:12:51.734Z,100514.66
2023-03-18T21:15:22.311Z,100525.44
2023-03-18T21:17:50.516Z,100522.63
2023-03-18T21:20:25.604Z,100521.78
2023-03-18T21:22:52.977Z,100521.78
2023-03-18T21:25:22.739Z,100525.78
2023-03-18T21:27:50.088Z,100520.16
2023-03-18T21:30:18.728Z,100519.31
2023-03-18T21:32:46.179Z,100522.91
2023-03-18T21:35:20.971Z,100521.72
2023-03-18T21:37:47.968Z,100513.69
2023-03-18T21:40:16.060Z,100517.25
2023-03-18T21:42:43.941Z,100517.22
2023-03-18T21:45:13.583Z,100517.19
2023-03-18T21:47:40.474Z,100513.94
2023-03-18T21:50:07.284Z,100504.66
2023-03-18T21:52:36.934Z,100514.69
2023-03-18T21:55:06.141Z,100511.00
2023-03-18T21:57:32.849Z,100514.56
2023-03-18T21:59:59.487Z,100510.88
2023-03-18T22:02:27.598Z,100512.47
2023-03-18T22:04:57.902Z,100503.63
2023-03-18T22:07:26.191Z,100509.59
2023-03-18T22:09:52.981Z,100515.66
2023-03-18T22:12:24.003Z,100511.22
2023-03-18T22:14:50.936Z,100504.81
2023-03-18T22:17:29.252Z,100507.19
2023-03-18T22:19:57.028Z,100510.06
2023-03-18T22:22:26.185Z,100507.59
2023-03-18T22:24:53.351Z,100505.59
2023-03-18T22:27:23.323Z,100505.19
2023-03-18T22:29:51.681Z,100496.38
2023-03-18T22:32:44.727Z,100500.31
2023-03-18T22:35:16.777Z,100494.31
2023-03-18T22:37:43.155Z,100491.91
2023-03-18T22:40:21.765Z,100489.03
2023-03-18T22:42:50.438Z,100489.47
2023-03-18T22:45:28.936Z,100497.00
2023-03-18T22:47:56.877Z,100489.84
2023-03-18T22:50:26.175Z,100490.66
2023-03-18T22:53:05.942Z,100492.19
2023-03-18T22:55:36.647Z,100491.00
2023-03-18T22:58:03.439Z,100486.97
2023-03-18T23:00:39.132Z,100490.91
2023-03-18T23:03:28.873Z,100496.84
2023-03-18T23:05:57.936Z,100491.25
2023-03-18T23:08:27.544Z,100489.59
2023-03-18T23:10:57.027Z,100489.19
2023-03-18T23:13:28.830Z,100495.19
2023-03-18T23:15:56.246Z,100491.53
2023-03-18T23:18:23.597Z,100499.16
2023-03-18T23:20:51.688Z,100488.31
2023-03-18T23:23:18.498Z,100488.31
2023-03-18T23:25:45.838Z,100495.13
2023-03-18T23:28:12.474Z,100487.91
2023-03-18T23:30:42.085Z,100494.69
2023-03-18T23:33:09.508Z,100489.47
2023-03-18T23:35:37.428Z,100493.06
2023-03-18T23:38:07.731Z,100495.47
2023-03-18T23:40:34.717Z,100506.66
2023-03-18T23:43:01.683Z,100510.22
2023-03-18T23:45:28.499Z,100503.38
2023-03-18T23:47:56.000Z,100505.75
2023-03-18T23:50:22.679Z,100512.91
2023-03-18T23:52:49.075Z,100509.66
2023-03-18T23:55:33.141Z,100506.44
2023-03-18T23:58:03.388Z,100508.00
